createdAt,value
2019-02-26T00:02:04.794Z,99.90
2019-02-26T00:04:36.915Z,99.90
2019-02-26T00:07:09.415Z,99.90
2019-02-26T00:09:40.523Z,99.90
2019-02-26T00:12:11.559Z,99.90
2019-02-26T00:14:45.211Z,99.90
2019-02-26T00:17:17.541Z,99.90
2019-02-26T00:19:49.021Z,99.90
2019-02-26T00:22:20.368Z,99.90
2019-02-26T00:24:51.462Z,99.90
2019-02-26T00:27:23.532Z,99.90
2019-02-26T00:29:55.845Z,99.90
2019-02-26T00:32:29.941Z,99.90
2019-02-26T00:35:04.054Z,99.90
2019-02-26T00:37:35.143Z,99.90
2019-02-26T00:40:09.576Z,99.90
2019-02-26T00:42:40.911Z,99.90
2019-02-26T00:45:12.603Z,99.90
2019-02-26T00:47:46.204Z,99.90
2019-02-26T00:50:16.821Z,99.90
2019-02-26T00:52:48.454Z,99.90
2019-02-26T00:55:23.164Z,99.90
2019-02-26T00:57:56.796Z,99.90
2019-02-26T01:00:26.814Z,99.90
2019-02-26T01:02:58.834Z,99.90
2019-02-26T01:05:30.147Z,99.90
2019-02-26T01:08:02.288Z,99.90
2019-02-26T01:10:34.586Z,99.90
2019-02-26T01:13:07.264Z,99.90
2019-02-26T01:15:39.683Z,99.90
2019-02-26T01:18:10.813Z,99.90
2019-02-26T01:20:41.846Z,99.90
2019-02-26T01:23:13.046Z,99.90
2019-02-26T01:25:44.233Z,99.90
2019-02-26T01:28:16.423Z,99.90
2019-02-26T01:30:48.902Z,99.90
2019-02-26T01:33:22.296Z,99.90
2019-02-26T01:35:55.519Z,99.90
2019-02-26T01:38:27.874Z,99.90
2019-02-26T01:40:59.047Z,99.90
2019-02-26T01:43:30.440Z,99.90
2019-02-26T01:46:01.557Z,99.90
2019-02-26T01:48:34.355Z,99.90
2019-02-26T01:51:07.200Z,99.90
2019-02-26T01:53:38.254Z,99.90
2019-02-26T01:56:09.569Z,99.90
2019-02-26T01:58:40.678Z,99.90
2019-02-26T02:01:14.063Z,99.90
2019-02-26T02:03:46.547Z,99.90
2019-02-26T02:06:18.151Z,99.90
2019-02-26T02:08:52.447Z,99.90
2019-02-26T02:11:23.855Z,99.90
2019-02-26T02:13:56.025Z,99.90
2019-02-26T02:16:29.622Z,99.90
2019-02-26T02:19:00.817Z,99.90
2019-02-26T02:21:35.637Z,99.90
2019-02-26T02:24:10.761Z,99.90
2019-02-26T02:26:41.107Z,99.90
2019-02-26T02:29:16.545Z,99.90
2019-02-26T02:31:45.634Z,99.90
2019-02-26T02:34:17.139Z,99.90
2019-02-26T02:36:48.253Z,99.90
2019-02-26T02:39:20.953Z,99.90
2019-02-26T02:41:54.945Z,99.90
2019-02-26T02:44:26.139Z,99.90
2019-02-26T02:46:58.589Z,99.90
2019-02-26T02:49:32.546Z,99.90
2019-02-26T02:52:04.189Z,99.90
2019-02-26T02:54:35.683Z,99.90
2019-02-26T02:57:08.023Z,99.90
2019-02-26T02:59:42.230Z,99.90
2019-02-26T03:02:15.075Z,99.90
2019-02-26T03:04:46.622Z,99.90
2019-02-26T03:07:20.317Z,99.90
2019-02-26T03:09:51.063Z,99.90
2019-02-26T03:12:22.244Z,99.90
2019-02-26T03:14:53.404Z,99.90
2019-02-26T03:17:24.587Z,99.90
2019-02-26T03:19:56.516Z,99.90
2019-02-26T03:22:28.514Z,99.90
2019-02-26T03:25:01.930Z,99.90
2019-02-26T03:27:34.282Z,99.90
2019-02-26T03:30:08.031Z,99.90
2019-02-26T03:32:41.385Z,99.90
2019-02-26T03:35:13.337Z,99.90
2019-02-26T03:37:45.330Z,99.90
2019-02-26T03:40:17.086Z,99.90
2019-02-26T03:42:48.615Z,99.90
2019-02-26T03:45:23.919Z,99.90
2019-02-26T03:47:55.379Z,99.90
2019-02-26T03:50:27.081Z,99.90
2019-02-26T03:52:58.451Z,99.90
2019-02-26T03:55:31.720Z,99.90
2019-02-26T03:58:02.998Z,99.90
2019-02-26T04:00:35.591Z,99.90
2019-02-26T04:03:09.303Z,99.90
2019-02-26T04:05:40.425Z,99.90
2019-02-26T04:08:12.336Z,99.90
2019-02-26T04:10:45.637Z,99.90
2019-02-26T04:13:16.455Z,99.90
2019-02-26T04:15:47.774Z,99.90
2019-02-26T04:18:19.093Z,99.90
2019-02-26T04:20:50.465Z,99.90
2019-02-26T04:23:22.003Z,99.90
2019-02-26T04:26:38.784Z,99.90
2019-02-26T04:29:48.699Z,99.90
2019-02-26T04:33:20.013Z,99.90
2019-02-26T04:36:39.424Z,99.90
2019-02-26T04:39:55.142Z,99.90
2019-02-26T04:43:41.716Z,99.90
2019-02-26T04:47:05.854Z,99.90
2019-02-26T04:49:42.127Z,99.90
2019-02-26T04:52:10.874Z,99.90
2019-02-26T04:54:43.251Z,99.90
2019-02-26T04:57:15.002Z,99.90
2019-02-26T04:59:46.026Z,99.90
2019-02-26T05:02:17.606Z,99.90
2019-02-26T05:04:49.076Z,99.90
2019-02-26T05:07:20.235Z,99.90
2019-02-26T05:09:53.867Z,99.90
2019-02-26T05:12:25.415Z,99.90
2019-02-26T05:14:57.087Z,99.90
2019-02-26T05:17:30.749Z,99.90
2019-02-26T05:20:03.505Z,99.90
2019-02-26T05:22:33.745Z,99.90
2019-02-26T05:25:07.469Z,99.90
2019-02-26T05:27:39.749Z,99.90
2019-02-26T05:30:13.899Z,99.90
2019-02-26T05:32:44.578Z,99.90
2019-02-26T05:35:18.080Z,99.90
2019-02-26T05:37:48.968Z,99.90
2019-02-26T05:40:23.376Z,99.90
2019-02-26T05:42:56.081Z,99.90
2019-02-26T05:45:29.870Z,99.90
2019-02-26T05:48:01.214Z,99.90
2019-02-26T05:50:35.612Z,99.90
2019-02-26T05:53:07.647Z,99.90
2019-02-26T05:55:38.765Z,99.90
2019-02-26T05:58:12.467Z,99.90
2019-02-26T06:00:42.928Z,99.90
2019-02-26T06:03:16.293Z,99.90
2019-02-26T06:05:48.963Z,99.90
2019-02-26T06:08:19.657Z,99.90
2019-02-26T06:10:51.122Z,99.90
2019-02-26T06:13:22.185Z,99.90
2019-02-26T06:15:55.147Z,99.90
2019-02-26T06:18:27.666Z,99.90
2019-02-26T06:21:01.214Z,99.90
2019-02-26T06:23:34.466Z,99.90
2019-02-26T06:26:13.842Z,99.90
2019-02-26T06:28:43.474Z,99.90
2019-02-26T06:31:17.407Z,99.90
2019-02-26T06:33:47.864Z,99.90
2019-02-26T06:36:21.038Z,99.90
2019-02-26T06:38:53.922Z,99.90
2019-02-26T06:41:25.010Z,99.90
2019-02-26T06:43:56.464Z,99.90
2019-02-26T06:46:29.381Z,99.90
2019-02-26T06:49:00.506Z,99.90
2019-02-26T06:51:32.251Z,99.90
2019-02-26T06:54:03.803Z,99.90
2019-02-26T06:56:40.744Z,99.90
2019-02-26T06:59:14.715Z,99.90
2019-02-26T07:01:46.293Z,99.90
2019-02-26T07:04:17.404Z,99.90
2019-02-26T07:06:48.591Z,99.90
2019-02-26T07:09:20.482Z,99.90
2019-02-26T07:11:51.690Z,99.90
2019-02-26T07:14:24.842Z,99.90
2019-02-26T07:16:59.088Z,99.90
2019-02-26T07:19:31.250Z,99.90
2019-02-26T07:22:05.471Z,99.90
2019-02-26T07:24:38.435Z,99.90
2019-02-26T07:27:11.611Z,99.90
2019-02-26T07:29:42.890Z,99.90
2019-02-26T07:32:17.287Z,99.90
2019-02-26T07:34:49.696Z,99.90
2019-02-26T07:37:21.027Z,99.90
2019-02-26T07:39:52.151Z,99.90
2019-02-26T07:42:23.399Z,99.90
2019-02-26T07:44:54.530Z,99.90
2019-02-26T07:47:26.589Z,99.90
2019-02-26T07:50:00.871Z,99.90
2019-02-26T07:52:33.052Z,99.90
2019-02-26T07:55:06.301Z,99.90
2019-02-26T07:57:37.279Z,99.90
2019-02-26T08:00:11.313Z,99.90
2019-02-26T08:02:42.524Z,99.90
2019-02-26T08:05:16.180Z,99.90
2019-02-26T08:07:48.536Z,99.90
2019-02-26T08:10:19.973Z,99.90
2019-02-26T08:12:51.284Z,99.90
2019-02-26T08:15:22.864Z,99.90
2019-02-26T08:17:57.517Z,99.90
2019-02-26T08:20:28.418Z,99.90
2019-02-26T08:23:01.348Z,99.90
2019-02-26T08:25:32.680Z,99.90
2019-02-26T08:28:04.263Z,99.90
2019-02-26T08:30:35.538Z,99.90
2019-02-26T08:33:07.358Z,99.90
2019-02-26T08:35:38.784Z,99.90
2019-02-26T08:38:10.641Z,99.90
2019-02-26T08:40:41.741Z,99.90
2019-02-26T08:43:12.871Z,99.90
2019-02-26T08:45:44.073Z,99.90
2019-02-26T08:48:17.144Z,99.90
2019-02-26T08:50:48.391Z,99.90
2019-02-26T08:53:21.762Z,99.90
2019-02-26T08:55:53.711Z,99.90
2019-02-26T08:58:26.373Z,99.90
2019-02-26T09:00:58.483Z,99.90
2019-02-26T09:03:29.702Z,99.90
2019-02-26T09:06:12.409Z,99.90
2019-02-26T09:08:35.541Z,99.90
2019-02-26T09:11:08.663Z,99.90
2019-02-26T09:13:41.173Z,99.90
2019-02-26T09:16:12.387Z,99.90
2019-02-26T09:18:43.432Z,99.90
2019-02-26T09:21:15.576Z,99.90
2019-02-26T09:23:49.523Z,99.90
2019-02-26T09:26:19.636Z,99.90
2019-02-26T09:28:52.389Z,99.90
2019-02-26T09:31:23.649Z,99.90
2019-02-26T09:33:55.753Z,99.90
2019-02-26T09:36:29.328Z,99.90
2019-02-26T09:39:00.007Z,99.90
2019-02-26T09:41:33.226Z,99.90
2019-02-26T09:44:06.590Z,99.90
2019-02-26T09:46:38.804Z,99.90
2019-02-26T09:49:12.312Z,99.90
2019-02-26T09:51:42.718Z,99.90
2019-02-26T09:54:15.169Z,99.90
2019-02-26T09:56:47.196Z,99.90
2019-02-26T09:59:18.404Z,99.90
2019-02-26T10:01:49.576Z,99.90
2019-02-26T10:04:22.114Z,99.90
2019-02-26T10:06:53.921Z,99.90
2019-02-26T10:09:25.123Z,99.90
2019-02-26T10:11:59.880Z,99.90
2019-02-26T10:14:33.381Z,99.90
2019-02-26T10:17:04.349Z,99.90
2019-02-26T10:19:36.506Z,99.90
2019-02-26T10:22:12.539Z,99.90
2019-02-26T10:24:41.232Z,99.90
2019-02-26T10:27:14.456Z,99.90
2019-02-26T10:29:47.462Z,99.90
2019-02-26T10:32:18.755Z,99.90
2019-02-26T10:34:50.207Z,99.90
2019-02-26T10:37:21.653Z,99.90
2019-02-26T10:39:54.931Z,99.90
2019-02-26T10:42:25.695Z,99.90
2019-02-26T10:44:56.991Z,99.90
2019-02-26T10:47:29.887Z,99.90
2019-02-26T10:50:01.045Z,99.90
2019-02-26T10:52:32.359Z,99.90
2019-02-26T10:55:04.064Z,99.90
2019-02-26T10:57:36.153Z,99.90
2019-02-26T11:00:18.487Z,99.90
2019-02-26T11:02:54.109Z,99.90
2019-02-26T11:05:26.421Z,99.90
2019-02-26T11:08:02.392Z,99.90
2019-02-26T11:10:32.115Z,99.90
2019-02-26T11:13:03.282Z,99.90
2019-02-26T11:15:36.017Z,99.90
2019-02-26T11:18:08.363Z,99.90
2019-02-26T11:20:40.418Z,99.90
2019-02-26T11:23:13.744Z,99.90
2019-02-26T11:25:44.609Z,99.80
2019-02-26T11:28:15.871Z,99.70
2019-02-26T11:30:49.029Z,96.80
2019-02-26T11:33:19.881Z,98.20
2019-02-26T11:35:51.604Z,99.90
2019-02-26T11:38:36.958Z,99.90
2019-02-26T11:41:07.904Z,99.90
2019-02-26T11:43:39.115Z,99.50
2019-02-26T11:46:10.364Z,96.40
2019-02-26T11:48:41.902Z,99.90
2019-02-26T11:51:16.842Z,99.90
2019-02-26T11:53:46.341Z,99.90
2019-02-26T11:56:20.588Z,99.90
2019-02-26T11:58:50.851Z,99.50
2019-02-26T12:01:22.114Z,99.70
2019-02-26T12:03:55.945Z,99.50
2019-02-26T12:06:26.355Z,98.60
2019-02-26T12:08:57.617Z,97.70
2019-02-26T12:11:28.871Z,97.50
2019-02-26T12:14:00.228Z,95.90
2019-02-26T12:16:31.477Z,96.60
2019-02-26T12:19:04.069Z,95.60
2019-02-26T12:21:37.028Z,94.90
2019-02-26T12:24:09.121Z,82.70
2019-02-26T12:26:42.319Z,91.30
2019-02-26T12:29:16.167Z,93.10
2019-02-26T12:31:47.194Z,90.90
2019-02-26T12:34:20.758Z,92.30
2019-02-26T12:36:53.247Z,91.80
2019-02-26T12:39:25.116Z,91.60
2019-02-26T12:41:57.027Z,90.20
2019-02-26T12:44:29.072Z,86.50
2019-02-26T12:47:00.945Z,78.10
2019-02-26T12:49:33.245Z,76.60
2019-02-26T12:52:04.963Z,74.70
2019-02-26T12:54:37.778Z,78.40
2019-02-26T12:57:08.941Z,82.00
2019-02-26T12:59:40.085Z,75.60
2019-02-26T13:02:13.980Z,62.50
2019-02-26T13:04:45.518Z,73.60
2019-02-26T13:07:17.002Z,67.90
2019-02-26T13:09:51.989Z,60.10
2019-02-26T13:12:23.997Z,66.70
2019-02-26T13:14:56.475Z,64.10
2019-02-26T13:17:29.467Z,55.10
2019-02-26T13:20:01.694Z,57.60
2019-02-26T13:22:34.727Z,57.00
2019-02-26T13:25:09.677Z,44.40
2019-02-26T13:27:43.200Z,42.60
2019-02-26T13:30:16.320Z,44.40
2019-02-26T13:32:56.099Z,43.80
2019-02-26T13:35:20.796Z,42.60
2019-02-26T13:37:53.100Z,38.00
2019-02-26T13:40:24.422Z,37.60
2019-02-26T13:45:28.814Z,36.00
2019-02-26T13:48:01.391Z,37.60
2019-02-26T13:50:32.944Z,36.30
2019-02-26T13:53:04.430Z,36.90
2019-02-26T13:55:35.952Z,38.10
2019-02-26T13:58:11.675Z,38.10
2019-02-26T14:00:40.288Z,37.10
2019-02-26T14:03:11.580Z,36.20
2019-02-26T14:05:43.085Z,36.60
2019-02-26T14:08:14.646Z,36.50
2019-02-26T14:10:45.854Z,34.00
2019-02-26T14:13:17.034Z,32.90
2019-02-26T14:15:48.311Z,34.20
2019-02-26T14:18:20.159Z,31.50
2019-02-26T14:20:51.318Z,31.80
2019-02-26T14:23:22.449Z,30.80
2019-02-26T14:25:53.580Z,30.10
2019-02-26T14:28:25.788Z,32.10
2019-02-26T14:30:56.924Z,33.10
2019-02-26T14:33:28.232Z,33.10
2019-02-26T14:35:59.456Z,34.90
2019-02-26T14:38:30.583Z,35.60
2019-02-26T14:41:02.365Z,36.60
2019-02-26T14:43:34.026Z,36.60
2019-02-26T14:46:05.788Z,36.40
2019-02-26T14:48:37.038Z,35.40
2019-02-26T14:51:08.347Z,36.20
2019-02-26T14:53:39.659Z,36.10
2019-02-26T14:56:10.975Z,37.30
2019-02-26T14:58:42.229Z,37.20
2019-02-26T15:01:14.338Z,36.00
2019-02-26T15:03:45.655Z,36.70
2019-02-26T15:06:16.769Z,37.10
2019-02-26T15:08:47.808Z,36.80
2019-02-26T15:11:26.312Z,38.10
2019-02-26T15:13:57.349Z,38.40
2019-02-26T15:16:28.492Z,38.80
2019-02-26T15:19:00.659Z,38.90
2019-02-26T15:21:31.903Z,39.40
2019-02-26T15:24:03.079Z,39.60
2019-02-26T15:26:34.530Z,39.50
2019-02-26T15:29:06.203Z,39.00
2019-02-26T15:31:37.412Z,39.40
2019-02-26T15:34:08.603Z,40.10
2019-02-26T15:36:39.758Z,40.60
2019-02-26T15:39:11.430Z,40.30
2019-02-26T15:41:42.649Z,39.80
2019-02-26T15:44:13.982Z,40.50
2019-02-26T15:46:45.941Z,40.70
2019-02-26T15:49:17.082Z,40.90
2019-02-26T15:51:48.756Z,40.70
2019-02-26T15:54:21.122Z,40.70
2019-02-26T15:56:52.462Z,41.40
2019-02-26T15:59:23.654Z,41.40
2019-02-26T16:01:55.525Z,42.40
2019-02-26T16:04:27.565Z,41.30
2019-02-26T16:06:59.062Z,40.50
2019-02-26T16:09:30.249Z,41.80
2019-02-26T16:12:01.320Z,42.00
2019-02-26T16:14:32.778Z,42.20
2019-02-26T16:17:04.034Z,42.80
2019-02-26T16:19:35.070Z,42.50
2019-02-26T16:22:06.284Z,42.80
2019-02-26T16:24:37.450Z,42.30
2019-02-26T16:27:08.687Z,42.80
2019-02-26T16:29:41.074Z,42.90
2019-02-26T16:32:12.749Z,43.10
2019-02-26T16:34:43.896Z,43.30
2019-02-26T16:37:15.211Z,43.70
2019-02-26T16:39:46.816Z,43.70
2019-02-26T16:42:18.464Z,44.20
2019-02-26T16:44:49.636Z,44.40
2019-02-26T16:47:20.860Z,44.50
2019-02-26T16:49:52.210Z,45.30
2019-02-26T16:52:23.366Z,46.10
2019-02-26T16:54:54.859Z,47.20
2019-02-26T16:57:28.142Z,47.80
2019-02-26T16:59:59.036Z,48.50
2019-02-26T17:02:30.269Z,49.20
2019-02-26T17:05:01.380Z,49.80
2019-02-26T17:07:33.818Z,50.30
2019-02-26T17:10:06.171Z,50.70
2019-02-26T17:12:37.999Z,51.40
2019-02-26T17:15:15.626Z,51.60
2019-02-26T17:17:47.640Z,52.10
2019-02-26T17:20:19.639Z,52.40
2019-02-26T17:22:52.203Z,53.00
2019-02-26T17:25:27.326Z,53.10
2019-02-26T17:27:57.340Z,53.70
2019-02-26T17:30:28.623Z,54.10
2019-02-26T17:32:59.799Z,54.40
2019-02-26T17:35:31.314Z,54.60
2019-02-26T17:38:02.493Z,55.10
2019-02-26T17:40:36.391Z,55.10
2019-02-26T17:43:06.731Z,55.60
2019-02-26T17:45:38.025Z,55.90
2019-02-26T17:48:09.289Z,56.30
2019-02-26T17:50:43.365Z,56.50
2019-02-26T17:53:13.641Z,59.40
2019-02-26T17:55:46.872Z,59.50
2019-02-26T17:58:18.112Z,60.80
2019-02-26T18:00:53.323Z,62.20
2019-02-26T18:03:25.729Z,64.00
2019-02-26T18:05:57.447Z,64.40
2019-02-26T18:08:29.174Z,65.20
2019-02-26T18:11:00.592Z,67.20
2019-02-26T18:13:31.689Z,69.20
2019-02-26T18:16:09.132Z,68.30
2019-02-26T18:18:36.195Z,69.80
2019-02-26T18:21:07.738Z,71.10
2019-02-26T18:23:39.207Z,70.90
2019-02-26T18:26:10.423Z,71.80
2019-02-26T18:28:41.510Z,73.10
2019-02-26T18:31:12.745Z,72.50
2019-02-26T18:33:44.062Z,73.80
2019-02-26T18:36:15.235Z,76.70
2019-02-26T18:38:48.340Z,78.00
2019-02-26T18:41:19.319Z,78.30
2019-02-26T18:43:51.166Z,77.10
2019-02-26T18:46:22.970Z,78.80
2019-02-26T18:48:54.126Z,80.40
2019-02-26T18:51:25.191Z,81.30
2019-02-26T18:53:56.343Z,81.80
2019-02-26T18:56:27.468Z,85.00
2019-02-26T18:58:58.843Z,87.40
2019-02-26T19:01:30.785Z,87.90
2019-02-26T19:04:02.545Z,91.00
2019-02-26T19:06:34.884Z,92.70
2019-02-26T19:09:11.492Z,94.30
2019-02-26T19:11:41.648Z,94.70
2019-02-26T19:14:13.235Z,94.90
2019-02-26T19:16:44.596Z,95.50
2019-02-26T19:19:15.737Z,95.10
2019-02-26T19:21:47.002Z,95.00
2019-02-26T19:24:18.495Z,94.30
2019-02-26T19:26:49.768Z,93.90
2019-02-26T19:29:21.512Z,95.00
2019-02-26T19:31:52.738Z,94.50
2019-02-26T19:34:28.095Z,94.70
2019-02-26T19:36:57.963Z,94.40
2019-02-26T19:39:29.005Z,94.70
2019-02-26T19:42:00.459Z,95.10
2019-02-26T19:44:35.718Z,95.20
2019-02-26T19:47:04.708Z,95.60
2019-02-26T19:49:36.851Z,95.50
2019-02-26T19:52:08.734Z,95.60
2019-02-26T19:54:42.016Z,96.60
2019-02-26T19:57:13.137Z,98.30
2019-02-26T19:59:46.833Z,98.30
2019-02-26T20:02:18.004Z,99.00
2019-02-26T20:04:49.233Z,99.90
2019-02-26T20:07:20.341Z,99.90
2019-02-26T20:09:51.438Z,99.90
2019-02-26T20:12:22.748Z,99.00
2019-02-26T20:14:55.002Z,98.70
2019-02-26T20:17:26.491Z,99.90
2019-02-26T20:19:57.671Z,99.90
2019-02-26T20:22:30.625Z,99.90
2019-02-26T20:25:02.031Z,99.90
2019-02-26T20:27:33.365Z,99.90
2019-02-26T20:30:05.483Z,99.90
2019-02-26T20:32:36.779Z,99.90
2019-02-26T20:35:11.609Z,99.90
2019-02-26T20:37:42.710Z,99.90
2019-02-26T20:40:16.966Z,99.90
2019-02-26T20:42:48.059Z,99.90
2019-02-26T20:45:19.956Z,99.90
2019-02-26T20:47:51.222Z,99.90
2019-02-26T20:50:23.882Z,99.90
2019-02-26T20:52:56.314Z,99.90
2019-02-26T20:55:28.954Z,99.90
2019-02-26T20:58:00.545Z,99.90
2019-02-26T21:00:31.720Z,99.90
2019-02-26T21:03:02.949Z,99.90
2019-02-26T21:05:35.088Z,99.90
2019-02-26T21:08:07.440Z,99.90
2019-02-26T21:10:38.615Z,99.90
2019-02-26T21:13:09.927Z,99.90
2019-02-26T21:15:41.414Z,99.90
2019-02-26T21:18:12.767Z,99.90
2019-02-26T21:20:49.259Z,99.90
2019-02-26T21:23:21.730Z,99.90
2019-02-26T21:25:52.739Z,99.90
2019-02-26T21:28:23.870Z,99.90
2019-02-26T21:30:56.019Z,99.90
2019-02-26T21:33:30.591Z,99.90
2019-02-26T21:36:00.285Z,99.90
2019-02-26T21:38:38.570Z,99.90
2019-02-26T21:41:07.798Z,99.90
2019-02-26T21:43:38.996Z,99.90
2019-02-26T21:46:10.246Z,99.90
2019-02-26T21:48:41.398Z,99.90
2019-02-26T21:51:12.496Z,99.90
2019-02-26T21:53:43.925Z,99.90
2019-02-26T21:56:16.324Z,99.90
2019-02-26T21:58:48.697Z,99.90
2019-02-26T22:01:19.714Z,99.90
2019-02-26T22:03:50.767Z,99.90
2019-02-26T22:06:21.956Z,99.90
2019-02-26T22:08:54.909Z,99.90
2019-02-26T22:11:25.755Z,99.90
2019-02-26T22:13:56.840Z,99.90
2019-02-26T22:16:27.937Z,99.90
2019-02-26T22:18:59.000Z,99.90
2019-02-26T22:21:31.372Z,99.90
2019-02-26T22:24:04.659Z,99.90
2019-02-26T22:26:35.703Z,99.90
2019-02-26T22:29:07.957Z,99.90
2019-02-26T22:31:39.043Z,99.90
2019-02-26T22:34:10.486Z,99.90
2019-02-26T22:36:41.683Z,99.90
2019-02-26T22:39:14.976Z,99.90
2019-02-26T22:41:46.142Z,99.90
2019-02-26T22:44:18.656Z,99.90
2019-02-26T22:46:50.023Z,99.90
2019-02-26T22:49:21.381Z,99.90
2019-02-26T22:51:52.813Z,99.90
2019-02-26T22:54:24.351Z,99.90
2019-02-26T22:56:56.873Z,99.90
2019-02-26T22:59:29.284Z,99.90
2019-02-26T23:02:00.518Z,99.90
2019-02-26T23:04:33.568Z,99.90
2019-02-26T23:07:05.394Z,99.90
2019-02-26T23:09:37.692Z,99.90
2019-02-26T23:12:10.544Z,99.90
2019-02-26T23:14:43.023Z,99.90
2019-02-26T23:17:14.519Z,99.90
2019-02-26T23:19:46.572Z,99.90
2019-02-26T23:22:20.919Z,99.90
2019-02-26T23:24:52.469Z,99.90
2019-02-26T23:27:23.729Z,99.90
2019-02-26T23:29:55.305Z,99.90
2019-02-26T23:32:27.856Z,99.90
2019-02-26T23:35:11.547Z,99.90
2019-02-26T23:37:42.880Z,99.90
2019-02-26T23:40:15.360Z,99.90
2019-02-26T23:42:46.962Z,99.90
2019-02-26T23:45:18.780Z,99.90
2019-02-26T23:47:49.929Z,99.90
2019-02-26T23:50:21.109Z,99.90
2019-02-26T23:52:52.509Z,99.90
2019-02-26T23:55:24.136Z,99.90
2019-02-26T23:57:57.666Z,99.90
